createdAt,value
2023-09-17T00:01:58.930Z,5.50
2023-09-17T00:07:01.785Z,5.37
2023-09-17T00:12:05.044Z,5.37
2023-09-17T00:17:07.941Z,5.38
2023-09-17T00:22:13.016Z,5.46
2023-09-17T00:27:15.808Z,5.45
2023-09-17T00:32:19.492Z,5.38
2023-09-17T00:37:22.346Z,5.33
2023-09-17T00:42:25.631Z,5.19
2023-09-17T00:47:28.592Z,5.16
2023-09-17T00:52:32.008Z,5.00
2023-09-17T00:57:35.426Z,5.00
2023-09-17T01:02:39.381Z,5.03
2023-09-17T01:07:42.793Z,5.06
2023-09-17T01:12:45.663Z,4.97
2023-09-17T01:17:54.523Z,5.05
2023-09-17T01:23:12.220Z,5.06
2023-09-17T01:28:15.331Z,4.97
2023-09-17T01:33:18.119Z,5.02
2023-09-17T01:38:24.813Z,5.01
2023-09-17T01:43:29.260Z,4.90
2023-09-17T01:48:33.480Z,4.89
2023-09-17T01:53:36.605Z,4.80
2023-09-17T01:58:39.340Z,4.80
2023-09-17T02:03:42.586Z,4.72
2023-09-17T02:08:45.375Z,4.69
2023-09-17T02:13:48.316Z,4.61
2023-09-17T02:18:52.648Z,4.47
2023-09-17T02:23:56.299Z,4.52
2023-09-17T02:28:59.483Z,4.46
2023-09-17T02:34:02.129Z,4.34
2023-09-17T02:39:05.401Z,4.20
2023-09-17T02:44:08.051Z,4.17
2023-09-17T02:49:11.131Z,4.32
2023-09-17T02:54:13.815Z,4.35
2023-09-17T02:59:16.722Z,4.32
2023-09-17T03:04:19.542Z,4.36
2023-09-17T03:09:22.337Z,4.33
2023-09-17T03:14:27.305Z,4.40
2023-09-17T03:19:31.292Z,4.41
2023-09-17T03:24:34.037Z,4.63
2023-09-17T03:29:36.917Z,4.85
2023-09-17T03:34:40.599Z,5.06
2023-09-17T03:39:44.719Z,5.26
2023-09-17T03:44:47.629Z,5.33
2023-09-17T03:49:50.463Z,5.60
2023-09-17T03:54:53.697Z,5.73
2023-09-17T03:59:56.556Z,5.82
2023-09-17T04:04:59.380Z,5.86
2023-09-17T04:10:04.071Z,6.07
2023-09-17T04:15:14.474Z,6.28
2023-09-17T04:20:19.828Z,6.44
2023-09-17T04:25:27.365Z,6.78
2023-09-17T04:30:31.256Z,7.06
2023-09-17T04:35:34.104Z,7.37
2023-09-17T04:40:37.253Z,7.61
2023-09-17T04:45:45.503Z,7.69
2023-09-17T04:51:07.630Z,8.03
2023-09-17T04:56:11.030Z,8.15
2023-09-17T05:01:16.537Z,8.58
2023-09-17T05:06:20.170Z,8.69
2023-09-17T05:11:23.443Z,8.75
2023-09-17T05:16:26.331Z,8.97
2023-09-17T05:21:29.116Z,9.05
2023-09-17T05:26:32.775Z,9.27
2023-09-17T05:31:35.697Z,9.67
2023-09-17T05:36:38.820Z,9.79
2023-09-17T05:41:41.764Z,9.97
2023-09-17T05:46:44.732Z,9.99
2023-09-17T05:51:47.798Z,10.26
2023-09-17T05:56:54.681Z,10.45
2023-09-17T06:01:59.495Z,10.73
2023-09-17T06:07:02.416Z,11.04
2023-09-17T06:12:06.184Z,11.20
2023-09-17T06:17:09.682Z,11.41
2023-09-17T06:22:12.812Z,11.62
2023-09-17T06:27:15.684Z,11.87
2023-09-17T06:32:19.420Z,12.24
2023-09-17T06:37:22.425Z,12.52
2023-09-17T06:42:26.234Z,12.65
2023-09-17T06:47:29.156Z,12.94
2023-09-17T06:52:32.009Z,13.24
2023-09-17T06:57:34.736Z,13.51
2023-09-17T07:02:37.343Z,13.70
2023-09-17T07:07:40.034Z,14.08
2023-09-17T07:12:43.617Z,14.10
2023-09-17T07:17:46.396Z,14.39
2023-09-17T07:22:49.745Z,14.38
2023-09-17T07:27:52.453Z,14.44
2023-09-17T07:32:55.742Z,14.55
2023-09-17T07:37:58.575Z,14.78
2023-09-17T07:43:02.557Z,15.03
2023-09-17T07:48:07.241Z,15.20
2023-09-17T07:53:10.124Z,15.09
2023-09-17T07:58:12.747Z,15.39
2023-09-17T08:03:17.775Z,15.45
2023-09-17T08:08:20.422Z,15.64
2023-09-17T08:13:23.332Z,15.80
2023-09-17T08:18:26.385Z,15.87
2023-09-17T08:23:29.056Z,15.68
2023-09-17T08:28:51.689Z,15.69
2023-09-17T08:34:18.263Z,15.86
2023-09-17T08:39:28.882Z,15.83
2023-09-17T08:44:34.868Z,15.77
2023-09-17T08:49:37.646Z,15.76
2023-09-17T08:54:43.421Z,16.01
2023-09-17T08:59:54.052Z,16.44
2023-09-17T09:04:58.275Z,16.76
2023-09-17T09:10:02.733Z,16.66
2023-09-17T09:15:08.438Z,16.48
2023-09-17T09:20:18.133Z,16.56
2023-09-17T09:25:21.011Z,16.63
2023-09-17T09:30:23.796Z,16.72
2023-09-17T09:35:26.720Z,16.83
2023-09-17T09:40:30.250Z,16.68
2023-09-17T09:45:34.626Z,16.77
2023-09-17T09:50:37.432Z,16.91
2023-09-17T09:55:40.406Z,17.03
2023-09-17T10:00:46.350Z,17.25
2023-09-17T10:05:50.067Z,17.31
2023-09-17T10:10:52.777Z,17.31
2023-09-17T10:15:56.566Z,17.29
2023-09-17T10:21:01.070Z,17.09
2023-09-17T10:26:04.989Z,17.30
2023-09-17T10:31:10.001Z,17.32
2023-09-17T10:36:13.731Z,17.45
2023-09-17T10:41:17.186Z,17.58
2023-09-17T10:46:22.821Z,17.59
2023-09-17T10:51:28.397Z,16.92
2023-09-17T10:56:31.731Z,17.09
2023-09-17T11:01:36.087Z,17.38
2023-09-17T11:06:40.950Z,17.51
2023-09-17T11:11:44.766Z,17.34
2023-09-17T11:16:49.661Z,17.39
2023-09-17T11:22:09.642Z,17.51
2023-09-17T11:27:13.584Z,17.60
2023-09-17T11:32:23.388Z,17.30
2023-09-17T11:37:26.838Z,17.51
2023-09-17T11:42:29.737Z,17.69
2023-09-17T11:47:32.474Z,17.91
2023-09-17T11:52:35.295Z,18.02
2023-09-17T11:57:38.140Z,18.18
2023-09-17T12:02:43.962Z,18.18
2023-09-17T12:07:55.189Z,18.14
2023-09-17T12:13:00.835Z,18.11
2023-09-17T12:18:04.540Z,18.32
2023-09-17T12:23:15.480Z,18.41
2023-09-17T12:28:29.118Z,18.39
2023-09-17T12:33:31.979Z,18.46
2023-09-17T12:38:34.590Z,18.29
2023-09-17T12:43:37.258Z,18.11
2023-09-17T12:48:40.359Z,17.77
2023-09-17T12:53:44.829Z,17.64
2023-09-17T12:58:51.620Z,17.72
2023-09-17T13:04:05.240Z,17.64
2023-09-17T13:09:10.365Z,17.76
2023-09-17T13:14:13.092Z,17.72
2023-09-17T13:19:16.013Z,17.65
2023-09-17T13:24:19.783Z,17.52
2023-09-17T13:29:22.452Z,17.51
2023-09-17T13:34:25.082Z,17.43
2023-09-17T13:39:27.983Z,17.39
2023-09-17T13:44:30.735Z,17.26
2023-09-17T13:49:33.412Z,17.02
2023-09-17T13:54:38.951Z,16.92
2023-09-17T13:59:41.768Z,16.72
2023-09-17T14:04:44.895Z,16.70
2023-09-17T14:09:47.614Z,16.63
2023-09-17T14:14:50.232Z,16.37
2023-09-17T14:19:52.857Z,16.35
2023-09-17T14:24:55.559Z,16.32
2023-09-17T14:29:58.161Z,16.23
2023-09-17T14:35:00.781Z,16.07
2023-09-17T14:40:03.434Z,15.92
2023-09-17T14:45:07.193Z,15.83
2023-09-17T14:50:11.846Z,15.70
2023-09-17T14:55:14.618Z,15.66
2023-09-17T15:00:17.850Z,15.50
2023-09-17T15:05:20.880Z,15.24
2023-09-17T15:10:23.584Z,15.10
2023-09-17T15:15:26.237Z,14.99
2023-09-17T15:20:31.381Z,14.80
2023-09-17T15:25:35.062Z,14.62
2023-09-17T15:30:37.693Z,14.52
2023-09-17T15:35:41.823Z,14.35
2023-09-17T15:40:44.618Z,14.09
2023-09-17T15:45:47.240Z,14.00
2023-09-17T15:50:52.816Z,13.88
2023-09-17T15:55:55.612Z,13.70
2023-09-17T16:00:58.630Z,13.55
2023-09-17T16:06:01.810Z,13.27
2023-09-17T16:11:04.749Z,13.26
2023-09-17T16:16:07.710Z,13.07
2023-09-17T16:21:11.565Z,12.95
2023-09-17T16:26:15.481Z,12.84
2023-09-17T16:31:18.698Z,12.76
2023-09-17T16:36:21.469Z,12.66
2023-09-17T16:41:24.468Z,12.59
2023-09-17T16:46:27.294Z,12.46
2023-09-17T16:51:30.081Z,12.36
2023-09-17T16:56:32.815Z,12.30
2023-09-17T17:01:36.585Z,12.20
2023-09-17T17:06:39.623Z,12.03
2023-09-17T17:11:42.776Z,11.93
2023-09-17T17:16:45.726Z,11.84
2023-09-17T17:21:48.569Z,11.83
2023-09-17T17:26:52.268Z,11.74
2023-09-17T17:31:55.234Z,11.67
2023-09-17T17:37:01.228Z,11.63
2023-09-17T17:42:04.891Z,11.60
2023-09-17T17:47:07.583Z,11.52
2023-09-17T17:52:10.246Z,11.47
2023-09-17T17:57:12.984Z,11.45
2023-09-17T18:02:15.968Z,11.43
2023-09-17T18:07:18.831Z,11.36
2023-09-17T18:12:21.628Z,11.24
2023-09-17T18:17:26.938Z,11.28
2023-09-17T18:22:30.786Z,11.29
2023-09-17T18:27:33.516Z,11.34
2023-09-17T18:32:36.288Z,11.33
2023-09-17T18:37:39.030Z,11.34
2023-09-17T18:42:41.726Z,11.37
2023-09-17T18:47:44.800Z,11.43
2023-09-17T18:52:47.573Z,11.43
2023-09-17T18:57:50.616Z,11.51
2023-09-17T19:02:53.452Z,11.48
2023-09-17T19:07:56.435Z,11.50
2023-09-17T19:12:59.098Z,11.51
2023-09-17T19:18:01.903Z,11.46
2023-09-17T19:23:04.776Z,11.53
2023-09-17T19:28:10.371Z,11.25
2023-09-17T19:33:14.450Z,11.46
2023-09-17T19:38:17.397Z,11.43
2023-09-17T19:43:20.260Z,11.47
2023-09-17T19:48:23.452Z,11.46
2023-09-17T19:53:26.262Z,11.52
2023-09-17T19:58:28.962Z,11.52
2023-09-17T20:03:31.802Z,11.57
2023-09-17T20:08:34.640Z,11.56
2023-09-17T20:13:37.986Z,11.58
2023-09-17T20:18:42.344Z,11.54
2023-09-17T20:23:45.119Z,11.53
2023-09-17T20:28:49.501Z,11.50
2023-09-17T20:33:52.283Z,11.50
2023-09-17T20:38:55.048Z,11.49
2023-09-17T20:43:58.014Z,11.44
2023-09-17T20:49:01.152Z,11.37
2023-09-17T20:54:04.248Z,11.26
2023-09-17T20:59:06.923Z,11.24
2023-09-17T21:04:10.212Z,11.08
2023-09-17T21:09:31.202Z,11.15
2023-09-17T21:14:33.870Z,11.03
2023-09-17T21:19:36.504Z,10.97
2023-09-17T21:24:39.865Z,10.77
2023-09-17T21:29:42.534Z,10.74
2023-09-17T21:34:45.091Z,10.65
2023-09-17T21:39:47.720Z,10.58
2023-09-17T21:44:50.420Z,10.59
2023-09-17T21:49:55.106Z,10.56
2023-09-17T21:54:58.388Z,10.53
2023-09-17T22:00:01.080Z,10.46
2023-09-17T22:05:05.149Z,10.39
2023-09-17T22:10:08.290Z,10.38
2023-09-17T22:15:11.480Z,10.33
2023-09-17T22:20:19.997Z,10.34
2023-09-17T22:25:23.762Z,10.34
2023-09-17T22:30:27.178Z,10.29
2023-09-17T22:35:29.842Z,10.21
2023-09-17T22:40:32.721Z,10.14
2023-09-17T22:45:39.374Z,10.12
2023-09-17T22:50:41.994Z,10.09
2023-09-17T22:55:44.640Z,9.95
2023-09-17T23:00:47.323Z,9.98
2023-09-17T23:05:50.041Z,9.95
2023-09-17T23:11:00.127Z,9.93
2023-09-17T23:16:03.187Z,9.91
2023-09-17T23:21:05.997Z,9.97
2023-09-17T23:26:09.347Z,9.97
2023-09-17T23:31:12.128Z,9.99
2023-09-17T23:36:14.702Z,10.07
2023-09-17T23:41:20.589Z,10.19
2023-09-17T23:46:23.922Z,10.32
2023-09-17T23:51:26.825Z,10.42
2023-09-17T23:56:29.453Z,10.53
